This is the latest recevied weather packets stored in our database for station/object JP3QZN-13. If no packets are shown the sender has not sent any weather packets the latest 10 day(s).
| Time | Temp. | Humidity | Pressure | Rain* | Wind** | Luminosity | Snow |
|---|---|---|---|---|---|---|---|
| 1777814998 | 20.56° C | 85% | 1002.5 hPa | 4.06 mm | - | - | - |
| 1777813222 | 20° C | 85% | 1003.1 hPa | 1.78 mm | - | - | - |
| 1777811421 | 18.89° C | 83% | 1003.9 hPa | 1.78 mm | - | - | - |
| 1777809606 | 18.89° C | 82% | 1004.3 hPa | 1.78 mm | - | - | - |
| 1777807805 | 18.89° C | 80% | 1004.6 hPa | 1.27 mm | - | - | - |
| 1777806005 | 18.89° C | 80% | 1004.8 hPa | 0.25 mm | - | - | - |
| 1777804218 | 18.89° C | 80% | 1005.2 hPa | 1.27 mm | - | - | - |
| 1777804214 | 18.89° C | 80% | 1005.2 hPa | 1.27 mm | - | - | - |
| 1777802417 | 18.89° C | 78% | 1005.4 hPa | 2.29 mm | - | - | - |
| 1777802413 | 18.89° C | 78% | 1005.4 hPa | 2.29 mm | - | - | - |
| 1777800612 | 19.44° C | 75% | 1005.8 hPa | 0.76 mm | - | - | - |
| 1777798811 | 20° C | 72% | 1006 hPa | 0.25 mm | - | - | - |
| 1777797010 | 20.56° C | 71% | 1005.9 hPa | 0.25 mm | - | - | - |
| 1777793410 | 21.11° C | 68% | 1006.4 hPa | 0 mm | - | - | - |
| 1777791609 | 21.11° C | 67% | 1006.3 hPa | 0 mm | - | - | - |
| 1777789808 | 21.11° C | 65% | 1006.6 hPa | 0 mm | - | - | - |
| 1777788007 | 22.22° C | 60% | 1007.2 hPa | 0 mm | - | - | - |
| 1777786206 | 22.22° C | 56% | 1007.6 hPa | 0 mm | - | - | - |
| 1777784400 | 22.22° C | 55% | 1007.9 hPa | 0 mm | - | - | - |
| 1777782625 | 21.67° C | 55% | 1008.3 hPa | 0 mm | - | - | - |
| 1777782599 | 21.67° C | 55% | 1008.3 hPa | 0 mm | - | - | - |
| 1777780799 | 21.67° C | 55% | 1008.8 hPa | 0 mm | - | - | - |
| 1777779023 | 21.67° C | 55% | 1009.8 hPa | 0 mm | - | - | - |
| 1777777223 | 21.67° C | 55% | 1011 hPa | 0 mm | - | - | - |
| 1777775422 | 21.67° C | 55% | 1011.4 hPa | 0 mm | - | - | - |
* Rain latest hour (hover to see other rain measurements)
** Current wind speed in m/s (hover to see current wind gust speed)